createdAt,value
2018-06-14T00:01:01.687Z,7.30
2018-06-14T00:03:29.922Z,7.35
2018-06-14T00:05:58.242Z,8.15
2018-06-14T00:08:26.507Z,5.90
2018-06-14T00:10:54.730Z,7.83
2018-06-14T00:13:22.927Z,6.70
2018-06-14T00:15:51.233Z,6.00
2018-06-14T00:18:19.478Z,9.25
2018-06-14T00:20:48.018Z,6.12
2018-06-14T00:23:16.278Z,6.00
2018-06-14T00:25:44.493Z,7.63
2018-06-14T00:28:12.745Z,5.95
2018-06-14T00:30:41.005Z,6.80
2018-06-14T00:33:09.419Z,5.87
2018-06-14T00:35:38.003Z,6.13
2018-06-14T00:38:06.224Z,6.95
2018-06-14T00:40:34.465Z,6.80
2018-06-14T00:43:02.722Z,6.22
2018-06-14T00:45:30.922Z,6.13
2018-06-14T00:47:59.153Z,6.12
2018-06-14T00:50:27.409Z,6.05
2018-06-14T00:52:55.642Z,5.90
2018-06-14T00:55:23.934Z,5.40
2018-06-14T00:57:52.246Z,6.70
2018-06-14T01:00:20.516Z,5.67
2018-06-14T01:02:48.749Z,8.70
2018-06-14T01:05:17.037Z,7.42
2018-06-14T01:07:45.277Z,7.10
2018-06-14T01:10:13.243Z,7.20
2018-06-14T01:12:41.706Z,6.05
2018-06-14T01:15:10.005Z,7.70
2018-06-14T01:17:38.282Z,6.80
2018-06-14T01:20:06.866Z,8.25
2018-06-14T01:22:35.142Z,20.37
2018-06-14T01:25:03.383Z,9.05
2018-06-14T01:27:31.993Z,8.50
2018-06-14T01:30:01.781Z,7.17
2018-06-14T01:32:30.025Z,9.78
2018-06-14T01:34:58.304Z,8.20
2018-06-14T01:37:37.913Z,7.40
2018-06-14T01:40:06.185Z,7.00
2018-06-14T01:42:34.454Z,8.05
2018-06-14T01:45:02.747Z,9.03
2018-06-14T01:47:31.067Z,8.80
2018-06-14T01:49:59.328Z,8.90
2018-06-14T01:52:27.609Z,10.05
2018-06-14T01:54:55.933Z,9.03
2018-06-14T01:57:24.205Z,10.45
2018-06-14T01:59:52.461Z,9.27
2018-06-14T02:02:21.175Z,8.67
2018-06-14T02:04:49.505Z,10.10
2018-06-14T02:07:17.834Z,11.80
2018-06-14T02:09:46.105Z,11.20
2018-06-14T02:12:14.406Z,9.78
2018-06-14T02:14:42.761Z,10.13
2018-06-14T02:17:10.797Z,12.60
2018-06-14T02:19:39.017Z,10.45
2018-06-14T02:22:07.274Z,10.32
2018-06-14T02:24:35.658Z,11.05
2018-06-14T02:27:03.990Z,11.10
2018-06-14T02:29:32.277Z,12.37
2018-06-14T02:32:00.498Z,10.72
2018-06-14T02:34:28.802Z,11.73
2018-06-14T02:36:57.021Z,10.40
2018-06-14T02:39:25.219Z,9.38
2018-06-14T02:41:53.478Z,10.15
2018-06-14T02:44:21.736Z,12.70
2018-06-14T02:46:49.954Z,11.25
2018-06-14T02:49:18.217Z,14.83
2018-06-14T02:51:46.526Z,10.95
2018-06-14T02:54:14.735Z,10.95
2018-06-14T02:56:42.959Z,14.95
2018-06-14T02:59:11.158Z,11.53
2018-06-14T03:01:39.378Z,13.35
2018-06-14T03:04:07.641Z,12.45
2018-06-14T03:06:35.931Z,11.50
2018-06-14T03:09:05.844Z,12.60
2018-06-14T03:11:34.068Z,14.78
2018-06-14T03:14:02.354Z,16.00
2018-06-14T03:16:30.588Z,13.32
2018-06-14T03:18:58.841Z,15.48
2018-06-14T03:21:27.126Z,14.60
2018-06-14T03:23:55.417Z,14.68
2018-06-14T03:26:23.633Z,13.20
2018-06-14T03:28:51.918Z,14.60
2018-06-14T03:31:20.418Z,14.60
2018-06-14T03:33:48.695Z,15.35
2018-06-14T03:36:16.895Z,14.73
2018-06-14T03:38:45.162Z,14.98
2018-06-14T03:41:13.522Z,14.10
2018-06-14T03:43:41.785Z,15.28
2018-06-14T03:46:10.493Z,13.22
2018-06-14T03:48:38.901Z,13.90
2018-06-14T03:51:07.179Z,13.60
2018-06-14T03:53:35.426Z,14.15
2018-06-14T03:56:03.771Z,15.38
2018-06-14T03:58:32.034Z,15.60
2018-06-14T04:01:00.373Z,17.23
2018-06-14T04:03:28.617Z,14.00
2018-06-14T04:05:56.980Z,17.07
2018-06-14T04:08:25.293Z,17.60
2018-06-14T04:10:53.576Z,14.28
2018-06-14T04:13:21.875Z,17.15
2018-06-14T04:15:50.527Z,16.60
2018-06-14T04:18:18.793Z,16.57
2018-06-14T04:20:47.103Z,17.67
2018-06-14T04:23:15.759Z,17.45
2018-06-14T04:25:44.039Z,16.65
2018-06-14T04:28:12.313Z,19.20
2018-06-14T04:30:40.565Z,19.87
2018-06-14T04:33:08.818Z,17.10
2018-06-14T04:35:37.141Z,17.65
2018-06-14T04:38:05.441Z,17.45
2018-06-14T04:40:33.728Z,21.00
2018-06-14T04:43:02.167Z,17.80
2018-06-14T04:45:31.415Z,17.52
2018-06-14T04:47:59.691Z,20.27
2018-06-14T04:50:28.061Z,18.42
2018-06-14T04:52:56.365Z,19.32
2018-06-14T04:55:24.599Z,17.82
2018-06-14T04:57:52.837Z,19.98
2018-06-14T05:00:21.239Z,19.10
2018-06-14T05:02:49.565Z,18.42
2018-06-14T05:05:17.932Z,20.65
2018-06-14T05:07:46.185Z,18.00
2018-06-14T05:10:14.444Z,19.15
2018-06-14T05:12:42.714Z,19.30
2018-06-14T05:15:11.440Z,17.87
2018-06-14T05:17:39.693Z,19.02
2018-06-14T05:20:08.036Z,18.95
2018-06-14T05:22:36.613Z,18.07
2018-06-14T05:25:04.863Z,18.05
2018-06-14T05:27:33.238Z,19.97
2018-06-14T05:30:01.527Z,19.87
2018-06-14T05:32:29.760Z,18.97
2018-06-14T05:34:58.131Z,17.43
2018-06-14T05:37:26.449Z,18.47
2018-06-14T05:39:54.661Z,17.67
2018-06-14T05:42:22.735Z,18.97
2018-06-14T05:44:51.029Z,18.77
2018-06-14T05:47:19.346Z,18.37
2018-06-14T05:49:47.673Z,18.63
2018-06-14T05:52:15.897Z,19.20
2018-06-14T05:54:44.141Z,18.37
2018-06-14T05:57:12.441Z,18.67
2018-06-14T05:59:40.967Z,18.20
2018-06-14T06:02:09.210Z,18.30
2018-06-14T06:04:37.438Z,18.17
2018-06-14T06:07:05.765Z,19.57
2018-06-14T06:09:34.096Z,19.17
2018-06-14T06:12:02.389Z,18.53
2018-06-14T06:14:31.023Z,17.93
2018-06-14T06:16:59.352Z,18.10
2018-06-14T06:19:27.645Z,17.77
2018-06-14T06:21:56.313Z,19.83
2018-06-14T06:24:24.574Z,15.70
2018-06-14T06:26:52.811Z,14.80
2018-06-14T06:29:21.101Z,16.87
2018-06-14T06:31:49.296Z,13.90
2018-06-14T06:34:17.543Z,13.73
2018-06-14T06:36:45.874Z,14.33
2018-06-14T06:39:14.113Z,13.07
2018-06-14T06:41:42.441Z,11.30
2018-06-14T06:44:10.809Z,13.67
2018-06-14T06:46:39.183Z,10.97
2018-06-14T06:49:07.466Z,9.00
2018-06-14T06:51:35.769Z,9.23
2018-06-14T06:54:04.633Z,9.43
2018-06-14T06:56:33.192Z,8.90
2018-06-14T06:59:01.542Z,10.10
2018-06-14T07:01:29.801Z,8.13
2018-06-14T07:03:58.165Z,8.50
2018-06-14T07:06:26.579Z,9.73
2018-06-14T07:08:54.886Z,10.07
2018-06-14T07:11:23.154Z,7.63
2018-06-14T07:13:51.426Z,8.47
2018-06-14T07:16:19.678Z,7.80
2018-06-14T07:18:47.996Z,10.80
2018-06-14T07:21:16.497Z,7.80
2018-06-14T07:23:44.797Z,7.63
2018-06-14T07:26:13.001Z,12.97
2018-06-14T07:28:41.379Z,7.97
2018-06-14T07:31:09.749Z,9.30
2018-06-14T07:33:39.762Z,7.83
2018-06-14T07:36:08.064Z,8.03
2018-06-14T07:38:36.336Z,7.70
2018-06-14T07:41:04.606Z,9.23
2018-06-14T07:43:32.842Z,6.67
2018-06-14T07:46:01.430Z,6.80
2018-06-14T07:48:29.700Z,7.93
2018-06-14T07:50:58.032Z,5.93
2018-06-14T07:53:26.286Z,5.30
2018-06-14T07:55:54.516Z,5.40
2018-06-14T07:58:22.755Z,6.97
2018-06-14T08:00:51.017Z,10.13
2018-06-14T08:03:19.262Z,6.30
2018-06-14T08:05:47.502Z,10.53
2018-06-14T08:08:15.753Z,5.40
2018-06-14T08:10:43.981Z,6.30
2018-06-14T08:13:12.185Z,5.27
2018-06-14T08:15:40.477Z,4.30
2018-06-14T08:18:08.707Z,5.13
2018-06-14T08:20:37.691Z,9.93
2018-06-14T08:23:06.082Z,4.40
2018-06-14T08:25:35.685Z,5.13
2018-06-14T08:28:04.234Z,5.30
2018-06-14T08:30:32.490Z,3.60
2018-06-14T08:33:00.839Z,3.73
2018-06-14T08:35:28.960Z,4.80
2018-06-14T08:37:57.197Z,14.23
2018-06-14T08:40:25.502Z,3.33
2018-06-14T08:42:53.718Z,4.37
2018-06-14T08:45:22.131Z,7.27
2018-06-14T08:47:50.378Z,4.17
2018-06-14T08:50:18.703Z,2.97
2018-06-14T08:52:46.977Z,4.30
2018-06-14T08:55:15.287Z,5.07
2018-06-14T08:57:43.514Z,3.70
2018-06-14T09:00:11.865Z,3.57
2018-06-14T09:02:40.079Z,4.93
2018-06-14T09:05:08.738Z,4.37
2018-06-14T09:07:36.950Z,3.70
2018-06-14T09:10:05.182Z,4.47
2018-06-14T09:12:33.497Z,3.73
2018-06-14T09:15:01.822Z,4.70
2018-06-14T09:17:30.062Z,4.30
2018-06-14T09:19:58.297Z,5.93
2018-06-14T09:22:26.691Z,6.13
2018-06-14T09:24:54.959Z,5.90
2018-06-14T09:27:23.186Z,6.77
2018-06-14T09:29:51.475Z,5.50
2018-06-14T09:32:19.665Z,5.00
2018-06-14T09:34:47.898Z,8.30
2018-06-14T09:37:16.215Z,8.97
2018-06-14T09:39:44.497Z,8.57
2018-06-14T09:42:13.168Z,7.30
2018-06-14T09:44:41.465Z,11.27
2018-06-14T09:47:09.669Z,8.07
2018-06-14T09:49:38.164Z,8.07
2018-06-14T09:52:06.569Z,9.23
2018-06-14T09:54:34.914Z,11.23
2018-06-14T09:57:03.134Z,7.60
2018-06-14T09:59:31.390Z,8.93
2018-06-14T10:01:59.698Z,8.63
2018-06-14T10:04:28.058Z,13.90
2018-06-14T10:06:57.170Z,6.50
2018-06-14T10:09:25.445Z,7.47
2018-06-14T10:11:53.656Z,6.90
2018-06-14T10:14:21.871Z,7.63
2018-06-14T10:16:49.867Z,7.63
2018-06-14T10:19:19.175Z,10.20
2018-06-14T10:21:47.479Z,8.23
2018-06-14T10:24:15.686Z,12.87
2018-06-14T10:26:44.131Z,7.57
2018-06-14T10:29:12.640Z,6.93
2018-06-14T10:31:41.755Z,6.50
2018-06-14T10:34:12.591Z,7.60
2018-06-14T10:36:41.492Z,6.50
2018-06-14T10:39:10.578Z,7.63
2018-06-14T10:41:38.858Z,6.83
2018-06-14T10:44:07.150Z,7.10
2018-06-14T10:46:35.417Z,8.87
2018-06-14T10:49:03.917Z,6.17
2018-06-14T10:51:32.430Z,6.57
2018-06-14T10:54:00.806Z,6.63
2018-06-14T10:56:29.125Z,14.10
2018-06-14T10:58:57.498Z,7.20
2018-06-14T11:01:25.750Z,8.20
2018-06-14T11:03:54.083Z,7.30
2018-06-14T11:06:22.329Z,9.17
2018-06-14T11:08:50.613Z,10.47
2018-06-14T11:11:18.871Z,12.00
2018-06-14T11:13:46.834Z,8.60
2018-06-14T11:16:15.075Z,10.60
2018-06-14T11:18:43.683Z,9.03
2018-06-14T11:21:11.959Z,9.10
2018-06-14T11:23:40.259Z,9.33
2018-06-14T11:26:08.566Z,9.03
2018-06-14T11:28:36.766Z,7.57
2018-06-14T11:31:05.106Z,7.93
2018-06-14T11:33:33.655Z,8.90
2018-06-14T11:36:01.942Z,10.30
2018-06-14T11:38:30.294Z,9.17
2018-06-14T11:40:58.542Z,8.10
2018-06-14T11:43:26.771Z,10.43
2018-06-14T11:45:55.001Z,11.70
2018-06-14T11:48:23.339Z,7.80
2018-06-14T11:50:51.532Z,7.20
2018-06-14T11:53:19.795Z,9.50
2018-06-14T11:55:48.047Z,8.07
2018-06-14T11:58:16.318Z,6.77
2018-06-14T12:00:44.585Z,7.60
2018-06-14T12:03:12.926Z,8.13
2018-06-14T12:05:41.263Z,9.10
2018-06-14T12:08:09.527Z,6.83
2018-06-14T12:10:38.212Z,8.37
2018-06-14T12:13:06.482Z,6.90
2018-06-14T12:15:34.713Z,9.17
2018-06-14T12:18:02.944Z,7.90
2018-06-14T12:20:31.217Z,7.40
2018-06-14T12:22:59.596Z,6.33
2018-06-14T12:25:27.577Z,7.80
2018-06-14T12:27:55.880Z,8.00
2018-06-14T12:30:26.835Z,16.43
2018-06-14T12:32:55.099Z,8.27
2018-06-14T12:35:23.334Z,11.23
2018-06-14T12:37:51.591Z,6.87
2018-06-14T12:40:19.941Z,7.00
2018-06-14T12:42:48.148Z,9.10
2018-06-14T12:45:16.381Z,10.67
2018-06-14T12:47:44.636Z,8.13
2018-06-14T12:50:12.883Z,10.90
2018-06-14T12:52:41.090Z,10.97
2018-06-14T12:55:09.477Z,7.50
2018-06-14T12:57:37.837Z,13.73
2018-06-14T13:00:06.100Z,7.77
2018-06-14T13:02:34.373Z,7.30
2018-06-14T13:05:02.633Z,8.37
2018-06-14T13:07:30.845Z,10.40
2018-06-14T13:09:59.185Z,10.27
2018-06-14T13:12:27.425Z,7.77
2018-06-14T13:14:55.691Z,8.13
2018-06-14T13:17:23.996Z,10.20
2018-06-14T13:19:52.317Z,8.77
2018-06-14T13:22:20.671Z,7.47
2018-06-14T13:24:48.914Z,11.33
2018-06-14T13:27:17.121Z,7.67
2018-06-14T13:29:45.402Z,8.33
2018-06-14T13:32:13.731Z,10.50
2018-06-14T13:34:42.010Z,8.40
2018-06-14T13:37:10.324Z,9.87
2018-06-14T13:39:38.994Z,10.43
2018-06-14T13:42:07.214Z,8.37
2018-06-14T13:44:35.574Z,7.87
2018-06-14T13:47:03.898Z,9.40
2018-06-14T13:49:32.166Z,9.57
2018-06-14T13:52:00.402Z,7.93
2018-06-14T13:54:28.725Z,11.60
2018-06-14T13:56:57.135Z,9.70
2018-06-14T13:59:25.531Z,10.50
2018-06-14T14:01:53.865Z,8.93
2018-06-14T14:04:22.072Z,8.27
2018-06-14T14:06:54.523Z,8.53
2018-06-14T14:09:22.725Z,8.97
2018-06-14T14:11:51.038Z,9.10
2018-06-14T14:14:19.242Z,9.20
2018-06-14T14:16:47.601Z,14.60
2018-06-14T14:19:15.901Z,9.57
2018-06-14T14:21:44.397Z,11.80
2018-06-14T14:24:12.661Z,11.03
2018-06-14T14:26:40.970Z,10.90
2018-06-14T14:29:09.216Z,12.70
2018-06-14T14:31:37.475Z,11.00
2018-06-14T14:34:06.310Z,11.37
2018-06-14T14:36:34.527Z,12.17
2018-06-14T14:39:02.853Z,14.90
2018-06-14T14:41:31.138Z,14.77
2018-06-14T14:43:59.500Z,16.10
2018-06-14T14:46:27.712Z,15.97
2018-06-14T14:48:56.095Z,18.30
2018-06-14T14:51:24.327Z,22.23
2018-06-14T14:53:52.589Z,20.20
2018-06-14T14:56:20.792Z,20.63
2018-06-14T14:58:49.337Z,22.07
2018-06-14T15:01:17.654Z,24.20
2018-06-14T15:03:45.889Z,23.23
2018-06-14T15:06:14.690Z,23.03
2018-06-14T15:08:42.925Z,24.00
2018-06-14T15:11:12.051Z,23.97
2018-06-14T15:13:40.829Z,25.73
2018-06-14T15:16:09.139Z,25.70
2018-06-14T15:18:37.403Z,27.37
2018-06-14T15:21:06.055Z,26.10
2018-06-14T15:23:34.298Z,25.90
2018-06-14T15:26:02.648Z,23.80
2018-06-14T15:28:31.313Z,21.80
2018-06-14T15:30:59.549Z,21.73
2018-06-14T15:33:27.793Z,21.13
2018-06-14T15:35:56.740Z,22.47
2018-06-14T15:38:25.053Z,22.00
2018-06-14T15:40:53.301Z,21.73
2018-06-14T15:43:21.579Z,22.27
2018-06-14T15:45:49.874Z,21.47
2018-06-14T15:48:18.209Z,20.50
2018-06-14T15:50:46.471Z,24.03
2018-06-14T15:53:14.841Z,23.40
2018-06-14T15:56:07.666Z,21.23
2018-06-14T15:58:36.102Z,23.47
2018-06-14T16:01:04.591Z,23.60
2018-06-14T16:03:32.836Z,25.30
2018-06-14T16:06:01.065Z,26.80
2018-06-14T16:08:29.408Z,26.07
2018-06-14T16:10:57.787Z,25.20
2018-06-14T16:13:25.982Z,25.73
2018-06-14T16:15:54.275Z,27.50
2018-06-14T16:18:22.627Z,25.07
2018-06-14T16:20:50.867Z,27.13
2018-06-14T16:23:19.175Z,26.50
2018-06-14T16:25:47.459Z,27.47
2018-06-14T16:28:15.919Z,25.20
2018-06-14T16:30:44.195Z,26.80
2018-06-14T16:33:12.651Z,26.60
2018-06-14T16:35:41.021Z,27.70
2018-06-14T16:38:09.269Z,27.10
2018-06-14T16:40:37.583Z,29.97
2018-06-14T16:43:05.907Z,32.97
2018-06-14T16:45:34.209Z,30.77
2018-06-14T16:48:02.517Z,31.50
2018-06-14T16:50:30.822Z,31.00
2018-06-14T16:52:59.065Z,28.63
2018-06-14T16:55:27.390Z,28.30
2018-06-14T16:57:55.688Z,27.60
2018-06-14T17:00:23.930Z,26.67
2018-06-14T17:02:52.158Z,25.80
2018-06-14T17:05:20.530Z,23.63
2018-06-14T17:07:48.810Z,22.27
2018-06-14T17:10:17.550Z,22.50
2018-06-14T17:12:45.773Z,22.10
2018-06-14T17:15:14.068Z,20.17
2018-06-14T17:17:42.631Z,20.00
2018-06-14T17:20:10.967Z,20.23
2018-06-14T17:22:39.233Z,19.13
2018-06-14T17:25:07.520Z,19.63
2018-06-14T17:27:35.822Z,18.93
2018-06-14T17:30:04.308Z,18.97
2018-06-14T17:32:32.589Z,17.17
2018-06-14T17:35:00.874Z,16.87
2018-06-14T17:37:29.246Z,16.87
2018-06-14T17:39:57.537Z,15.13
2018-06-14T17:42:25.837Z,14.53
2018-06-14T17:44:54.054Z,12.37
2018-06-14T17:47:22.358Z,11.83
2018-06-14T17:49:50.607Z,10.57
2018-06-14T17:52:19.388Z,10.10
2018-06-14T17:54:47.628Z,9.70
2018-06-14T17:57:15.855Z,9.17
2018-06-14T17:59:44.211Z,10.13
2018-06-14T18:02:12.521Z,10.40
2018-06-14T18:04:40.862Z,10.50
2018-06-14T18:07:09.170Z,10.40
2018-06-14T18:09:37.394Z,10.50
2018-06-14T18:12:05.745Z,11.43
2018-06-14T18:14:33.961Z,11.40
2018-06-14T18:17:02.306Z,10.23
2018-06-14T18:19:30.550Z,11.13
2018-06-14T18:21:58.886Z,10.60
2018-06-14T18:24:27.147Z,11.20
2018-06-14T18:26:55.806Z,9.67
2018-06-14T18:29:24.265Z,8.83
2018-06-14T18:31:52.841Z,8.67
2018-06-14T18:34:21.843Z,8.27
2018-06-14T18:36:50.060Z,8.13
2018-06-14T18:39:18.337Z,7.90
2018-06-14T18:41:46.625Z,8.90
2018-06-14T18:44:14.902Z,8.47
2018-06-14T18:46:43.165Z,8.17
2018-06-14T18:49:11.370Z,9.00
2018-06-14T18:51:39.642Z,8.80
2018-06-14T18:54:07.894Z,8.53
2018-06-14T18:56:36.190Z,9.20
2018-06-14T18:59:04.508Z,8.90
2018-06-14T19:01:32.845Z,9.07
2018-06-14T19:04:01.045Z,9.60
2018-06-14T19:06:29.380Z,10.30
2018-06-14T19:08:57.407Z,9.73
2018-06-14T19:11:25.621Z,9.97
2018-06-14T19:13:53.849Z,10.10
2018-06-14T19:16:22.069Z,9.40
2018-06-14T19:18:50.290Z,10.80
2018-06-14T19:21:18.703Z,10.07
2018-06-14T19:23:46.966Z,7.90
2018-06-14T19:26:15.225Z,8.60
2018-06-14T19:28:43.521Z,8.70
2018-06-14T19:31:11.834Z,10.80
2018-06-14T19:33:40.053Z,10.47
2018-06-14T19:36:08.341Z,8.63
2018-06-14T19:38:36.574Z,14.00
2018-06-14T19:41:04.833Z,7.83
2018-06-14T19:43:33.046Z,9.97
2018-06-14T19:46:01.397Z,10.43
2018-06-14T19:48:29.659Z,8.10
2018-06-14T19:50:57.905Z,9.93
2018-06-14T19:53:26.235Z,8.47
2018-06-14T19:55:54.606Z,8.30
2018-06-14T19:58:22.909Z,10.33
2018-06-14T20:00:51.163Z,8.47
2018-06-14T20:03:19.463Z,12.00
2018-06-14T20:05:47.746Z,10.90
2018-06-14T20:08:16.110Z,10.23
2018-06-14T20:10:44.365Z,9.97
2018-06-14T20:13:12.637Z,11.80
2018-06-14T20:15:41.194Z,9.70
2018-06-14T20:18:09.430Z,11.00
2018-06-14T20:20:37.736Z,10.37
2018-06-14T20:23:05.970Z,11.33
2018-06-14T20:25:34.204Z,13.60
2018-06-14T20:28:02.480Z,10.43
2018-06-14T20:30:30.506Z,11.50
2018-06-14T20:32:58.760Z,11.40
2018-06-14T20:35:27.418Z,12.37
2018-06-14T20:37:55.969Z,12.20
2018-06-14T20:40:24.534Z,13.33
2018-06-14T20:42:52.845Z,12.30
2018-06-14T20:45:21.202Z,13.10
2018-06-14T20:47:49.472Z,23.80
2018-06-14T20:50:17.840Z,11.70
2018-06-14T20:52:46.453Z,11.33
2018-06-14T20:55:14.833Z,14.10
2018-06-14T20:57:43.079Z,16.17
2018-06-14T21:00:11.380Z,17.10
2018-06-14T21:02:39.645Z,12.90
2018-06-14T21:05:07.955Z,15.47
2018-06-14T21:07:36.128Z,16.03
2018-06-14T21:10:04.366Z,16.30
2018-06-14T21:12:32.631Z,14.80
2018-06-14T21:15:00.875Z,15.10
2018-06-14T21:17:29.163Z,16.70
2018-06-14T21:19:57.397Z,13.87
2018-06-14T21:22:25.661Z,16.63
2018-06-14T21:24:53.862Z,14.63
2018-06-14T21:27:22.350Z,18.23
2018-06-14T21:29:50.606Z,15.53
2018-06-14T21:32:25.242Z,19.33
2018-06-14T21:34:53.501Z,13.60
2018-06-14T21:37:21.752Z,15.07
2018-06-14T21:39:49.970Z,14.70
2018-06-14T21:42:17.989Z,15.97
2018-06-14T21:44:46.194Z,18.73
2018-06-14T21:47:14.513Z,15.73
2018-06-14T21:49:43.130Z,15.93
2018-06-14T21:52:11.388Z,14.30
2018-06-14T21:54:39.767Z,18.17
2018-06-14T21:57:07.990Z,13.67
2018-06-14T21:59:36.293Z,15.33
2018-06-14T22:02:04.515Z,16.67
2018-06-14T22:04:32.834Z,16.37
2018-06-14T22:07:01.380Z,20.97
2018-06-14T22:09:29.651Z,19.17
2018-06-14T22:11:58.251Z,18.73
2018-06-14T22:14:26.630Z,16.70
2018-06-14T22:16:55.786Z,17.73
2018-06-14T22:19:24.154Z,19.97
2018-06-14T22:21:52.389Z,18.40
2018-06-14T22:24:22.491Z,19.03
2018-06-14T22:26:50.693Z,19.10
2018-06-14T22:29:18.978Z,23.17
2018-06-14T22:31:47.213Z,17.10
2018-06-14T22:34:26.803Z,18.60
2018-06-14T22:36:55.013Z,21.30
2018-06-14T22:39:23.209Z,19.90
2018-06-14T22:41:51.501Z,21.80
2018-06-14T22:44:19.865Z,20.37
2018-06-14T22:46:48.030Z,20.83
2018-06-14T22:49:16.285Z,18.47
2018-06-14T22:53:52.860Z,24.73
2018-06-14T22:56:21.209Z,18.00
2018-06-14T22:58:49.453Z,19.50
2018-06-14T23:01:36.873Z,19.83
2018-06-14T23:04:05.938Z,24.20
2018-06-14T23:06:34.235Z,26.53
2018-06-14T23:10:13.478Z,21.63
2018-06-14T23:12:41.678Z,22.37
2018-06-14T23:15:09.901Z,21.10
2018-06-14T23:17:38.131Z,21.37
2018-06-14T23:20:06.374Z,24.27
2018-06-14T23:22:34.678Z,21.53
2018-06-14T23:25:02.935Z,19.03
2018-06-14T23:27:31.633Z,21.57
2018-06-14T23:30:00.270Z,24.63
2018-06-14T23:32:29.230Z,23.07
2018-06-14T23:34:57.699Z,20.27
2018-06-14T23:37:26.585Z,23.63
2018-06-14T23:39:55.819Z,18.70
2018-06-14T23:42:24.270Z,25.67
2018-06-14T23:44:53.150Z,21.10
2018-06-14T23:47:21.686Z,23.53
2018-06-14T23:49:49.926Z,22.00
2018-06-14T23:52:18.131Z,24.37
2018-06-14T23:54:46.818Z,19.50
2018-06-14T23:57:15.023Z,26.57
2018-06-14T23:59:43.237Z,24.73
